sensor_id;sensor_type;location;lat;lon;timestamp;pressure;altitude;pressure_sealevel;temperature;humidity
60015;BME280;45867;52.480;6.056;2023-07-13T00:00:36;101246.16;;;14.99;100.00
60015;BME280;45867;52.480;6.056;2023-07-13T00:03:04;101238.22;;;14.94;100.00
60015;BME280;45867;52.480;6.056;2023-07-13T00:05:31;101244.13;;;14.91;100.00
60015;BME280;45867;52.480;6.056;2023-07-13T00:07:57;101248.03;;;14.99;100.00
60015;BME280;45867;52.480;6.056;2023-07-13T00:10:24;101252.22;;;15.05;100.00
60015;BME280;45867;52.480;6.056;2023-07-13T00:12:50;101234.59;;;14.85;100.00
60015;BME280;45867;52.480;6.056;2023-07-13T00:15:20;101246.94;;;15.00;100.00
60015;BME280;45867;52.480;6.056;2023-07-13T00:17:47;101235.78;;;14.98;100.00
60015;BME280;45867;52.480;6.056;2023-07-13T00:20:14;101242.66;;;15.04;100.00
60015;BME280;45867;52.480;6.056;2023-07-13T00:22:41;101238.44;;;14.98;100.00
60015;BME280;45867;52.480;6.056;2023-07-13T00:25:10;101249.13;;;14.98;100.00
60015;BME280;45867;52.480;6.056;2023-07-13T00:27:37;101236.56;;;14.98;100.00
60015;BME280;45867;52.480;6.056;2023-07-13T00:30:04;101251.78;;;14.98;100.00
60015;BME280;45867;52.480;6.056;2023-07-13T00:32:31;101233.56;;;14.81;100.00
60015;BME280;45867;52.480;6.056;2023-07-13T00:34:58;101243.97;;;14.82;100.00
60015;BME280;45867;52.480;6.056;2023-07-13T00:37:24;101240.56;;;14.77;100.00
60015;BME280;45867;52.480;6.056;2023-07-13T00:39:51;101215.44;;;14.54;100.00
60015;BME280;45867;52.480;6.056;2023-07-13T00:42:18;101229.16;;;14.71;100.00
60015;BME280;45867;52.480;6.056;2023-07-13T00:45:04;101241.28;;;14.82;100.00
60015;BME280;45867;52.480;6.056;2023-07-13T00:47:31;101239.72;;;14.81;100.00
60015;BME280;45867;52.480;6.056;2023-07-13T00:49:58;101233.13;;;14.74;100.00
60015;BME280;45867;52.480;6.056;2023-07-13T00:52:25;101217.06;;;14.55;100.00
60015;BME280;45867;52.480;6.056;2023-07-13T00:54:52;101228.09;;;14.67;100.00
60015;BME280;45867;52.480;6.056;2023-07-13T00:57:20;101225.44;;;14.67;100.00
60015;BME280;45867;52.480;6.056;2023-07-13T00:59:52;101224.31;;;14.73;100.00
60015;BME280;45867;52.480;6.056;2023-07-13T01:02:20;101222.78;;;14.67;100.00
60015;BME280;45867;52.480;6.056;2023-07-13T01:04:47;101220.16;;;14.62;100.00
60015;BME280;45867;52.480;6.056;2023-07-13T01:07:14;101228.50;;;14.55;100.00
60015;BME280;45867;52.480;6.056;2023-07-13T01:09:40;101233.50;;;14.62;100.00
60015;BME280;45867;52.480;6.056;2023-07-13T01:12:07;101221.06;;;14.52;100.00
60015;BME280;45867;52.480;6.056;2023-07-13T01:14:34;101222.66;;;14.48;100.00
60015;BME280;45867;52.480;6.056;2023-07-13T01:17:00;101218.25;;;14.38;100.00
60015;BME280;45867;52.480;6.056;2023-07-13T01:19:36;101223.25;;;14.45;100.00
60015;BME280;45867;52.480;6.056;2023-07-13T01:22:05;101207.69;;;14.28;100.00
60015;BME280;45867;52.480;6.056;2023-07-13T01:24:32;101190.16;;;14.22;100.00
60015;BME280;45867;52.480;6.056;2023-07-13T01:26:59;101195.25;;;14.42;100.00
60015;BME280;45867;52.480;6.056;2023-07-13T01:29:25;101190.72;;;14.43;100.00
60015;BME280;45867;52.480;6.056;2023-07-13T01:31:52;101172.50;;;14.26;100.00
60015;BME280;45867;52.480;6.056;2023-07-13T01:34:19;101197.44;;;14.40;100.00
60015;BME280;45867;52.480;6.056;2023-07-13T01:36:45;101195.25;;;14.42;100.00
60015;BME280;45867;52.480;6.056;2023-07-13T01:39:12;101193.97;;;14.40;100.00
60015;BME280;45867;52.480;6.056;2023-07-13T01:41:38;101188.06;;;14.43;100.00
60015;BME280;45867;52.480;6.056;2023-07-13T01:44:05;101193.00;;;14.31;100.00
60015;BME280;45867;52.480;6.056;2023-07-13T01:46:32;101189.06;;;14.23;100.00
60015;BME280;45867;52.480;6.056;2023-07-13T01:48:59;101185.84;;;14.26;100.00
60015;BME280;45867;52.480;6.056;2023-07-13T01:51:26;101180.88;;;14.14;100.00
60015;BME280;45867;52.480;6.056;2023-07-13T01:53:52;101185.88;;;14.21;100.00
60015;BME280;45867;52.480;6.056;2023-07-13T01:56:19;101196.53;;;14.21;100.00
60015;BME280;45867;52.480;6.056;2023-07-13T01:58:46;101184.81;;;14.22;100.00
60015;BME280;45867;52.480;6.056;2023-07-13T02:01:13;101184.34;;;14.15;100.00
60015;BME280;45867;52.480;6.056;2023-07-13T02:03:40;101190.41;;;14.20;100.00
60015;BME280;45867;52.480;6.056;2023-07-13T02:06:06;101195.94;;;14.29;100.00
60015;BME280;45867;52.480;6.056;2023-07-13T02:08:33;101197.75;;;14.34;100.00
60015;BME280;45867;52.480;6.056;2023-07-13T02:11:02;101181.69;;;14.15;100.00
60015;BME280;45867;52.480;6.056;2023-07-13T02:13:28;101179.53;;;14.17;100.00
60015;BME280;45867;52.480;6.056;2023-07-13T02:15:55;101175.56;;;14.14;100.00
60015;BME280;45867;52.480;6.056;2023-07-13T02:18:21;101186.75;;;14.16;100.00
60015;BME280;45867;52.480;6.056;2023-07-13T02:20:48;101169.19;;;14.10;100.00
60015;BME280;45867;52.480;6.056;2023-07-13T02:23:14;101180.94;;;14.09;100.00
60015;BME280;45867;52.480;6.056;2023-07-13T02:25:41;101182.81;;;14.09;100.00
60015;BME280;45867;52.480;6.056;2023-07-13T02:28:07;101163.66;;;14.02;100.00
60015;BME280;45867;52.480;6.056;2023-07-13T02:30:35;101183.56;;;14.14;100.00
60015;BME280;45867;52.480;6.056;2023-07-13T02:33:01;101180.72;;;14.06;100.00
60015;BME280;45867;52.480;6.056;2023-07-13T02:35:28;101176.13;;;14.11;100.00
60015;BME280;45867;52.480;6.056;2023-07-13T02:37:54;101174.28;;;14.07;100.00
60015;BME280;45867;52.480;6.056;2023-07-13T02:40:21;101156.31;;;13.88;100.00
60015;BME280;45867;52.480;6.056;2023-07-13T02:42:48;101163.25;;;13.89;100.00
60015;BME280;45867;52.480;6.056;2023-07-13T02:45:14;101180.44;;;14.02;100.00
60015;BME280;45867;52.480;6.056;2023-07-13T02:47:41;101185.00;;;14.02;100.00
60015;BME280;45867;52.480;6.056;2023-07-13T02:50:08;101172.03;;;13.90;100.00
60015;BME280;45867;52.480;6.056;2023-07-13T02:52:35;101168.91;;;13.83;100.00
60015;BME280;45867;52.480;6.056;2023-07-13T02:55:02;101175.19;;;13.97;100.00
60015;BME280;45867;52.480;6.056;2023-07-13T02:57:28;101183.22;;;13.92;100.00
60015;BME280;45867;52.480;6.056;2023-07-13T02:59:55;101154.06;;;13.71;100.00
60015;BME280;45867;52.480;6.056;2023-07-13T03:02:21;101176.13;;;13.77;100.00
60015;BME280;45867;52.480;6.056;2023-07-13T03:04:48;101175.38;;;13.71;100.00
60015;BME280;45867;52.480;6.056;2023-07-13T03:07:14;101189.22;;;13.73;100.00
60015;BME280;45867;52.480;6.056;2023-07-13T03:09:41;101181.75;;;13.75;100.00
60015;BME280;45867;52.480;6.056;2023-07-13T03:12:08;101178.84;;;13.72;100.00
60015;BME280;45867;52.480;6.056;2023-07-13T03:14:34;101192.97;;;13.72;100.00
60015;BME280;45867;52.480;6.056;2023-07-13T03:17:00;101188.50;;;13.63;100.00
60015;BME280;45867;52.480;6.056;2023-07-13T03:19:27;101199.09;;;13.73;100.00
60015;BME280;45867;52.480;6.056;2023-07-13T03:21:54;101200.22;;;13.67;100.00
60015;BME280;45867;52.480;6.056;2023-07-13T03:24:20;101188.50;;;13.63;100.00
60015;BME280;45867;52.480;6.056;2023-07-13T03:26:47;101190.91;;;13.64;100.00
60015;BME280;45867;52.480;6.056;2023-07-13T03:29:13;101203.38;;;13.69;100.00
60015;BME280;45867;52.480;6.056;2023-07-13T03:31:40;101211.38;;;13.64;100.00
60015;BME280;45867;52.480;6.056;2023-07-13T03:34:06;101204.50;;;13.58;100.00
60015;BME280;45867;52.480;6.056;2023-07-13T03:36:33;101188.13;;;13.40;100.00
60015;BME280;45867;52.480;6.056;2023-07-13T03:39:00;101214.91;;;13.59;100.00
60015;BME280;45867;52.480;6.056;2023-07-13T03:41:27;101203.50;;;13.53;100.00
60015;BME280;45867;52.480;6.056;2023-07-13T03:43:54;101216.69;;;13.69;100.00
60015;BME280;45867;52.480;6.056;2023-07-13T03:46:20;101206.34;;;13.62;100.00
60015;BME280;45867;52.480;6.056;2023-07-13T03:48:47;101210.84;;;13.67;100.00
60015;BME280;45867;52.480;6.056;2023-07-13T03:51:15;101223.34;;;13.66;100.00
60015;BME280;45867;52.480;6.056;2023-07-13T03:53:44;101213.22;;;13.68;100.00
60015;BME280;45867;52.480;6.056;2023-07-13T03:56:11;101225.22;;;13.66;100.00
60015;BME280;45867;52.480;6.056;2023-07-13T03:58:39;101227.09;;;13.65;100.00
60015;BME280;45867;52.480;6.056;2023-07-13T04:01:07;101213.56;;;13.62;100.00
60015;BME280;45867;52.480;6.056;2023-07-13T04:03:35;101222.56;;;13.66;100.00
60015;BME280;45867;52.480;6.056;2023-07-13T04:06:04;101208.50;;;13.60;100.00
60015;BME280;45867;52.480;6.056;2023-07-13T04:08:35;101203.94;;;13.61;100.00
60015;BME280;45867;52.480;6.056;2023-07-13T04:11:03;101223.91;;;13.63;100.00
60015;BME280;45867;52.480;6.056;2023-07-13T04:13:30;101224.19;;;13.62;100.00
60015;BME280;45867;52.480;6.056;2023-07-13T04:15:57;101227.09;;;13.65;100.00
60015;BME280;45867;52.480;6.056;2023-07-13T04:18:23;101219.91;;;13.66;100.00
60015;BME280;45867;52.480;6.056;2023-07-13T04:20:50;101226.84;;;13.67;100.00
60015;BME280;45867;52.480;6.056;2023-07-13T04:23:17;101227.09;;;13.65;100.00
60015;BME280;45867;52.480;6.056;2023-07-13T04:25:48;101222.00;;;13.69;100.00
60015;BME280;45867;52.480;6.056;2023-07-13T04:28:16;101231.81;;;13.79;100.00
60015;BME280;45867;52.480;6.056;2023-07-13T04:30:43;101218.47;;;13.84;100.00
60015;BME280;45867;52.480;6.056;2023-07-13T04:33:09;101216.25;;;13.91;100.00
60015;BME280;45867;52.480;6.056;2023-07-13T04:35:36;101209.88;;;13.92;100.00
60015;BME280;45867;52.480;6.056;2023-07-13T04:38:03;101226.88;;;13.96;100.00
60015;BME280;45867;52.480;6.056;2023-07-13T04:40:30;101209.84;;;13.97;100.00
60015;BME280;45867;52.480;6.056;2023-07-13T04:42:56;101214.81;;;14.04;100.00
60015;BME280;45867;52.480;6.056;2023-07-13T04:45:24;101204.69;;;14.06;100.00
60015;BME280;45867;52.480;6.056;2023-07-13T04:47:50;101212.13;;;14.09;100.00
60015;BME280;45867;52.480;6.056;2023-07-13T04:50:17;101202.78;;;14.11;100.00
60015;BME280;45867;52.480;6.056;2023-07-13T04:52:44;101206.19;;;14.17;100.00
60015;BME280;45867;52.480;6.056;2023-07-13T04:55:10;101208.03;;;14.21;100.00
60015;BME280;45867;52.480;6.056;2023-07-13T04:57:37;101192.03;;;14.21;100.00
60015;BME280;45867;52.480;6.056;2023-07-13T05:00:04;101193.03;;;14.26;100.00
60015;BME280;45867;52.480;6.056;2023-07-13T05:02:31;101198.50;;;14.39;100.00
60015;BME280;45867;52.480;6.056;2023-07-13T05:04:58;101198.97;;;14.47;100.00
60015;BME280;45867;52.480;6.056;2023-07-13T05:07:25;101199.69;;;14.57;100.00
60015;BME280;45867;52.480;6.056;2023-07-13T05:09:52;101194.84;;;14.59;100.00
60015;BME280;45867;52.480;6.056;2023-07-13T05:12:19;101195.38;;;14.61;100.00
60015;BME280;45867;52.480;6.056;2023-07-13T05:14:47;101187.16;;;14.58;100.00
60015;BME280;45867;52.480;6.056;2023-07-13T05:17:13;101200.03;;;14.75;100.00
60015;BME280;45867;52.480;6.056;2023-07-13T05:19:40;101177.66;;;14.71;100.00
60015;BME280;45867;52.480;6.056;2023-07-13T05:22:10;101198.47;;;14.93;100.00
60015;BME280;45867;52.480;6.056;2023-07-13T05:24:36;101199.38;;;15.07;100.00
60015;BME280;45867;52.480;6.056;2023-07-13T05:27:03;101199.88;;;15.09;100.00
60015;BME280;45867;52.480;6.056;2023-07-13T05:29:30;101203.94;;;15.25;100.00
60015;BME280;45867;52.480;6.056;2023-07-13T05:31:56;101188.75;;;15.59;100.00
60015;BME280;45867;52.480;6.056;2023-07-13T05:34:23;101165.50;;;15.78;100.00
60015;BME280;45867;52.480;6.056;2023-07-13T05:36:50;101177.47;;;16.13;100.00
60015;BME280;45867;52.480;6.056;2023-07-13T05:39:16;101171.72;;;16.20;100.00
60015;BME280;45867;52.480;6.056;2023-07-13T05:41:43;101168.44;;;16.23;100.00
60015;BME280;45867;52.480;6.056;2023-07-13T05:44:09;101174.13;;;16.35;100.00
60015;BME280;45867;52.480;6.056;2023-07-13T05:46:36;101159.88;;;16.40;100.00
60015;BME280;45867;52.480;6.056;2023-07-13T05:49:03;101176.03;;;16.62;100.00
60015;BME280;45867;52.480;6.056;2023-07-13T05:51:29;101185.81;;;17.08;100.00
60015;BME280;45867;52.480;6.056;2023-07-13T05:53:56;101194.09;;;17.21;100.00
60015;BME280;45867;52.480;6.056;2023-07-13T05:56:22;101193.88;;;17.31;100.00
60015;BME280;45867;52.480;6.056;2023-07-13T05:58:49;101201.06;;;17.22;100.00
60015;BME280;45867;52.480;6.056;2023-07-13T06:01:16;101197.63;;;17.44;100.00
60015;BME280;45867;52.480;6.056;2023-07-13T06:03:43;101207.44;;;17.71;100.00
60015;BME280;45867;52.480;6.056;2023-07-13T06:06:10;101211.38;;;17.87;100.00
60015;BME280;45867;52.480;6.056;2023-07-13T06:08:37;101218.22;;;17.57;100.00
60015;BME280;45867;52.480;6.056;2023-07-13T06:11:09;101228.91;;;17.93;100.00
60015;BME280;45867;52.480;6.056;2023-07-13T06:13:36;101218.47;;;17.92;100.00
60015;BME280;45867;52.480;6.056;2023-07-13T06:16:03;101205.09;;;17.78;100.00
60015;BME280;45867;52.480;6.056;2023-07-13T06:18:31;101232.38;;;17.94;100.00
60015;BME280;45867;52.480;6.056;2023-07-13T06:20:58;101244.78;;;18.44;100.00
60015;BME280;45867;52.480;6.056;2023-07-13T06:23:25;101249.78;;;18.59;100.00
60015;BME280;45867;52.480;6.056;2023-07-13T06:25:51;101232.53;;;18.51;100.00
60015;BME280;45867;52.480;6.056;2023-07-13T06:28:18;101245.81;;;18.56;100.00
60015;BME280;45867;52.480;6.056;2023-07-13T06:30:45;101242.97;;;19.01;100.00
60015;BME280;45867;52.480;6.056;2023-07-13T06:33:12;101263.97;;;18.91;100.00
60015;BME280;45867;52.480;6.056;2023-07-13T06:35:38;101271.41;;;18.62;100.00
60015;BME280;45867;52.480;6.056;2023-07-13T06:38:05;101276.91;;;18.26;100.00
60015;BME280;45867;52.480;6.056;2023-07-13T06:40:31;101280.88;;;18.29;100.00
60015;BME280;45867;52.480;6.056;2023-07-13T06:42:58;101295.19;;;18.78;100.00
60015;BME280;45867;52.480;6.056;2023-07-13T06:45:25;101280.34;;;19.38;100.00
60015;BME280;45867;52.480;6.056;2023-07-13T06:47:51;101268.50;;;19.65;100.00
60015;BME280;45867;52.480;6.056;2023-07-13T06:50:18;101287.50;;;19.77;100.00
60015;BME280;45867;52.480;6.056;2023-07-13T06:52:44;101297.75;;;19.58;100.00
60015;BME280;45867;52.480;6.056;2023-07-13T06:55:11;101291.88;;;19.38;100.00
60015;BME280;45867;52.480;6.056;2023-07-13T06:57:38;101308.13;;;19.16;100.00
60015;BME280;45867;52.480;6.056;2023-07-13T07:00:05;101310.97;;;19.19;100.00
60015;BME280;45867;52.480;6.056;2023-07-13T07:02:31;101307.59;;;18.96;100.00
60015;BME280;45867;52.480;6.056;2023-07-13T07:04:58;101321.31;;;19.52;100.00
60015;BME280;45867;52.480;6.056;2023-07-13T07:07:25;101310.44;;;19.74;100.00
60015;BME280;45867;52.480;6.056;2023-07-13T07:09:52;101329.16;;;19.22;100.00
60015;BME280;45867;52.480;6.056;2023-07-13T07:12:19;101334.75;;;18.95;100.00
60015;BME280;45867;52.480;6.056;2023-07-13T07:14:46;101347.03;;;19.27;100.00
60015;BME280;45867;52.480;6.056;2023-07-13T07:17:12;101335.44;;;20.01;100.00
60015;BME280;45867;52.480;6.056;2023-07-13T07:19:39;101332.28;;;19.73;100.00
60015;BME280;45867;52.480;6.056;2023-07-13T07:22:05;101338.75;;;20.33;100.00
60015;BME280;45867;52.480;6.056;2023-07-13T07:24:32;101338.22;;;20.57;100.00
60015;BME280;45867;52.480;6.056;2023-07-13T07:26:58;101354.47;;;20.78;100.00
60015;BME280;45867;52.480;6.056;2023-07-13T07:29:28;101358.38;;;20.07;100.00
60015;BME280;45867;52.480;6.056;2023-07-13T07:31:59;101360.56;;;19.62;100.00
60015;BME280;45867;52.480;6.056;2023-07-13T07:34:43;101365.00;;;20.45;100.00
60015;BME280;45867;52.480;6.056;2023-07-13T07:37:12;101366.31;;;20.94;100.00
60015;BME280;45867;52.480;6.056;2023-07-13T07:39:43;101374.41;;;21.62;100.00
60015;BME280;45867;52.480;6.056;2023-07-13T07:42:13;101383.38;;;21.07;100.00
60015;BME280;45867;52.480;6.056;2023-07-13T07:44:40;101388.75;;;20.43;100.00
60015;BME280;45867;52.480;6.056;2023-07-13T07:47:08;101395.25;;;20.24;100.00
60015;BME280;45867;52.480;6.056;2023-07-13T07:49:36;101401.22;;;19.69;100.00
60015;BME280;45867;52.480;6.056;2023-07-13T07:52:03;101397.50;;;20.13;100.00
60015;BME280;45867;52.480;6.056;2023-07-13T07:54:30;101377.97;;;20.51;100.00
60015;BME280;45867;52.480;6.056;2023-07-13T07:57:16;101407.25;;;21.26;100.00
60015;BME280;45867;52.480;6.056;2023-07-13T08:00:03;101397.38;;;21.89;100.00
60015;BME280;45867;52.480;6.056;2023-07-13T08:02:33;101404.16;;;22.16;100.00
60015;BME280;45867;52.480;6.056;2023-07-13T08:05:02;101408.31;;;22.35;100.00
60015;BME280;45867;52.480;6.056;2023-07-13T08:07:32;101425.09;;;22.74;100.00
60015;BME280;45867;52.480;6.056;2023-07-13T08:09:58;101447.16;;;22.76;100.00
60015;BME280;45867;52.480;6.056;2023-07-13T08:12:26;101431.19;;;22.83;100.00
60015;BME280;45867;52.480;6.056;2023-07-13T08:14:58;101442.13;;;22.87;100.00
60015;BME280;45867;52.480;6.056;2023-07-13T08:17:24;101453.50;;;21.75;100.00
60015;BME280;45867;52.480;6.056;2023-07-13T08:19:51;101467.47;;;21.39;100.00
60015;BME280;45867;52.480;6.056;2023-07-13T08:22:18;101475.97;;;20.24;100.00
60015;BME280;45867;52.480;6.056;2023-07-13T08:24:45;101486.97;;;19.70;100.00
60015;BME280;45867;52.480;6.056;2023-07-13T08:27:11;101504.56;;;18.92;100.00
60015;BME280;45867;52.480;6.056;2023-07-13T08:29:39;101512.25;;;17.98;100.00
60015;BME280;45867;52.480;6.056;2023-07-13T08:32:07;101511.97;;;17.39;100.00
60015;BME280;45867;52.480;6.056;2023-07-13T08:34:33;101509.94;;;17.17;100.00
60015;BME280;45867;52.480;6.056;2023-07-13T08:37:00;101509.53;;;16.91;100.00
60015;BME280;45867;52.480;6.056;2023-07-13T08:39:26;101497.72;;;16.78;100.00
60015;BME280;45867;52.480;6.056;2023-07-13T08:41:58;101470.47;;;16.90;100.00
60015;BME280;45867;52.480;6.056;2023-07-13T08:44:36;101450.75;;;16.86;100.00
60015;BME280;45867;52.480;6.056;2023-07-13T08:47:07;101462.13;;;16.78;100.00
60015;BME280;45867;52.480;6.056;2023-07-13T08:49:36;101459.13;;;16.60;100.00
60015;BME280;45867;52.480;6.056;2023-07-13T08:52:34;101449.06;;;16.90;100.00
60015;BME280;45867;52.480;6.056;2023-07-13T08:55:20;101437.03;;;18.62;100.00
60015;BME280;45867;52.480;6.056;2023-07-13T08:57:54;101429.78;;;20.13;100.00
60015;BME280;45867;52.480;6.056;2023-07-13T09:00:24;101405.16;;;19.63;100.00
60015;BME280;45867;52.480;6.056;2023-07-13T09:02:59;101405.94;;;19.15;100.00
60015;BME280;45867;52.480;6.056;2023-07-13T09:05:34;101419.03;;;19.07;100.00
60015;BME280;45867;52.480;6.056;2023-07-13T09:08:33;101418.09;;;18.81;100.00
60015;BME280;45867;52.480;6.056;2023-07-13T09:14:06;101433.91;;;20.11;100.00
60015;BME280;45867;52.480;6.056;2023-07-13T09:16:36;101426.53;;;19.68;100.00
60015;BME280;45867;52.480;6.056;2023-07-13T09:19:05;101420.50;;;19.62;100.00
60015;BME280;45867;52.480;6.056;2023-07-13T09:21:37;101440.56;;;19.56;100.00
60015;BME280;45867;52.480;6.056;2023-07-13T09:27:12;101461.59;;;19.54;100.00
60015;BME280;45867;52.480;6.056;2023-07-13T09:29:45;101458.53;;;19.47;100.00
60015;BME280;45867;52.480;6.056;2023-07-13T09:32:14;101462.78;;;19.70;100.00
60015;BME280;45867;52.480;6.056;2023-07-13T09:34:50;101448.75;;;20.78;100.00
60015;BME280;45867;52.480;6.056;2023-07-13T09:37:18;101462.06;;;22.61;100.00
60015;BME280;45867;52.480;6.056;2023-07-13T09:39:46;101447.50;;;22.20;100.00
60015;BME280;45867;52.480;6.056;2023-07-13T09:42:16;101473.34;;;21.70;100.00
60015;BME280;45867;52.480;6.056;2023-07-13T09:44:56;101480.16;;;20.74;100.00
60015;BME280;45867;52.480;6.056;2023-07-13T09:47:28;101486.44;;;20.08;100.00
60015;BME280;45867;52.480;6.056;2023-07-13T09:50:10;101493.03;;;19.85;100.00
60015;BME280;45867;52.480;6.056;2023-07-13T09:52:41;101508.47;;;20.28;100.00
60015;BME280;45867;52.480;6.056;2023-07-13T09:55:32;101506.84;;;20.18;100.00
60015;BME280;45867;52.480;6.056;2023-07-13T09:58:03;101516.56;;;19.70;100.00
60015;BME280;45867;52.480;6.056;2023-07-13T10:00:30;101537.69;;;19.32;100.00
60015;BME280;45867;52.480;6.056;2023-07-13T10:03:03;101557.47;;;19.14;100.00
60015;BME280;45867;52.480;6.056;2023-07-13T10:05:38;101624.25;;;18.56;100.00
60015;BME280;45867;52.480;6.056;2023-07-13T10:08:05;101626.00;;;16.70;100.00
60015;BME280;45867;52.480;6.056;2023-07-13T10:10:32;101612.97;;;16.39;100.00
60015;BME280;45867;52.480;6.056;2023-07-13T10:13:02;101593.09;;;16.26;100.00
60015;BME280;45867;52.480;6.056;2023-07-13T10:15:28;101588.38;;;16.18;100.00
60015;BME280;45867;52.480;6.056;2023-07-13T10:17:55;101573.28;;;16.03;100.00
60015;BME280;45867;52.480;6.056;2023-07-13T10:20:26;101542.56;;;16.01;100.00
60015;BME280;45867;52.480;6.056;2023-07-13T10:25:38;101560.78;;;16.41;100.00
60015;BME280;45867;52.480;6.056;2023-07-13T10:30:40;101558.06;;;16.47;100.00
60015;BME280;45867;52.480;6.056;2023-07-13T10:33:23;101541.25;;;16.22;100.00
60015;BME280;45867;52.480;6.056;2023-07-13T10:36:13;101546.81;;;16.26;100.00
60015;BME280;45867;52.480;6.056;2023-07-13T10:38:46;101519.03;;;16.03;100.00
60015;BME280;45867;52.480;6.056;2023-07-13T10:41:20;101513.72;;;15.97;100.00
60015;BME280;45867;52.480;6.056;2023-07-13T10:43:50;101512.28;;;16.29;100.00
60015;BME280;45867;52.480;6.056;2023-07-13T10:46:20;101517.22;;;16.60;100.00
60015;BME280;45867;52.480;6.056;2023-07-13T10:48:50;101499.06;;;16.57;100.00
60015;BME280;45867;52.480;6.056;2023-07-13T10:51:35;101490.78;;;16.72;100.00
60015;BME280;45867;52.480;6.056;2023-07-13T10:54:27;101463.91;;;16.63;100.00
60015;BME280;45867;52.480;6.056;2023-07-13T10:57:17;101482.22;;;16.75;100.00
60015;BME280;45867;52.480;6.056;2023-07-13T11:02:35;101461.06;;;17.39;100.00
60015;BME280;45867;52.480;6.056;2023-07-13T11:05:28;101466.00;;;17.46;100.00
60015;BME280;45867;52.480;6.056;2023-07-13T11:08:11;101464.94;;;17.33;100.00
60015;BME280;45867;52.480;6.056;2023-07-13T11:18:53;101462.19;;;15.68;100.00
60015;BME280;45867;52.480;6.056;2023-07-13T11:22:09;101454.75;;;15.65;100.00
60015;BME280;45867;52.480;6.056;2023-07-13T11:27:46;101471.72;;;15.79;100.00
60015;BME280;45867;52.480;6.056;2023-07-13T11:30:21;101476.69;;;15.62;100.00
60015;BME280;45867;52.480;6.056;2023-07-13T11:35:36;101461.28;;;15.83;100.00
60015;BME280;45867;52.480;6.056;2023-07-13T11:38:15;101465.56;;;16.03;100.00
60015;BME280;45867;52.480;6.056;2023-07-13T11:40:51;101462.13;;;16.21;100.00
60015;BME280;45867;52.480;6.056;2023-07-13T11:43:24;101438.84;;;16.40;100.00
60015;BME280;45867;52.480;6.056;2023-07-13T11:45:52;101442.56;;;16.77;100.00
60015;BME280;45867;52.480;6.056;2023-07-13T11:48:37;101443.38;;;17.11;100.00
60015;BME280;45867;52.480;6.056;2023-07-13T11:51:43;101427.25;;;18.21;100.00
60015;BME280;45867;52.480;6.056;2023-07-13T11:54:34;101407.41;;;18.45;100.00
60015;BME280;45867;52.480;6.056;2023-07-13T11:57:38;101415.41;;;18.81;100.00
60015;BME280;45867;52.480;6.056;2023-07-13T12:00:26;101389.03;;;19.23;100.00
60015;BME280;45867;52.480;6.056;2023-07-13T12:03:03;101363.78;;;20.25;100.00
60015;BME280;45867;52.480;6.056;2023-07-13T12:05:59;101344.84;;;21.45;100.00
60015;BME280;45867;52.480;6.056;2023-07-13T12:09:03;101354.78;;;21.74;100.00
60015;BME280;45867;52.480;6.056;2023-07-13T12:11:56;101367.78;;;21.21;100.00
60015;BME280;45867;52.480;6.056;2023-07-13T12:17:37;101444.78;;;21.99;100.00
60015;BME280;45867;52.480;6.056;2023-07-13T12:20:38;101426.97;;;22.61;100.00
60015;BME280;45867;52.480;6.056;2023-07-13T12:23:14;101472.06;;;23.76;100.00
60015;BME280;45867;52.480;6.056;2023-07-13T12:26:09;101480.03;;;23.11;100.00
60015;BME280;45867;52.480;6.056;2023-07-13T12:29:17;101502.63;;;24.54;100.00
60015;BME280;45867;52.480;6.056;2023-07-13T12:31:52;101513.59;;;23.80;100.00
60015;BME280;45867;52.480;6.056;2023-07-13T12:34:19;101567.03;;;24.20;100.00
60015;BME280;45867;52.480;6.056;2023-07-13T12:39:45;101570.09;;;23.36;100.00
60015;BME280;45867;52.480;6.056;2023-07-13T12:42:46;101563.13;;;24.86;100.00
60015;BME280;45867;52.480;6.056;2023-07-13T12:45:22;101541.66;;;23.88;100.00
60015;BME280;45867;52.480;6.056;2023-07-13T12:48:30;101576.97;;;22.58;100.00
60015;BME280;45867;52.480;6.056;2023-07-13T12:51:29;101554.41;;;23.75;100.00
60015;BME280;45867;52.480;6.056;2023-07-13T12:54:17;101609.84;;;23.23;100.00
60015;BME280;45867;52.480;6.056;2023-07-13T12:56:58;101582.69;;;22.78;100.00
60015;BME280;45867;52.480;6.056;2023-07-13T12:59:39;101579.13;;;23.40;100.00
60015;BME280;45867;52.480;6.056;2023-07-13T13:02:28;101605.31;;;24.71;100.00
60015;BME280;45867;52.480;6.056;2023-07-13T13:05:06;101615.50;;;24.37;100.00
60015;BME280;45867;52.480;6.056;2023-07-13T13:07:56;101607.69;;;24.61;100.00
60015;BME280;45867;52.480;6.056;2023-07-13T13:14:09;101644.75;;;24.07;100.00
60015;BME280;45867;52.480;6.056;2023-07-13T13:17:01;101642.13;;;23.86;100.00
60015;BME280;45867;52.480;6.056;2023-07-13T13:19:35;101617.78;;;23.74;100.00
60015;BME280;45867;52.480;6.056;2023-07-13T13:22:11;101619.59;;;24.07;100.00
60015;BME280;45867;52.480;6.056;2023-07-13T13:24:47;101645.53;;;23.71;100.00
60015;BME280;45867;52.480;6.056;2023-07-13T13:30:27;101639.13;;;24.12;100.00
60015;BME280;45867;52.480;6.056;2023-07-13T13:32:55;101639.78;;;23.52;100.00
60015;BME280;45867;52.480;6.056;2023-07-13T13:35:24;101652.63;;;23.42;100.00
60015;BME280;45867;52.480;6.056;2023-07-13T13:37:54;101648.78;;;23.77;100.00
60015;BME280;45867;52.480;6.056;2023-07-13T13:40:21;101651.75;;;24.08;100.00